sensor_id;sensor_type;location;lat;lon;timestamp;P1;durP1;ratioP1;P2;durP2;ratioP2
54430;SDS011;40342;52.998;5.862;2022-12-24T00:02:11;19.48;;;14.45;;
54430;SDS011;40342;52.998;5.862;2022-12-24T00:04:37;20.50;;;15.50;;
54430;SDS011;40342;52.998;5.862;2022-12-24T00:07:02;17.80;;;14.65;;
54430;SDS011;40342;52.998;5.862;2022-12-24T00:09:28;22.40;;;16.08;;
54430;SDS011;40342;52.998;5.862;2022-12-24T00:11:54;17.55;;;14.65;;
54430;SDS011;40342;52.998;5.862;2022-12-24T00:14:19;18.52;;;15.38;;
54430;SDS011;40342;52.998;5.862;2022-12-24T00:16:45;19.48;;;15.35;;
54430;SDS011;40342;52.998;5.862;2022-12-24T00:19:11;18.00;;;14.93;;
54430;SDS011;40342;52.998;5.862;2022-12-24T00:21:36;18.05;;;14.18;;
54430;SDS011;40342;52.998;5.862;2022-12-24T00:24:03;17.48;;;13.98;;
54430;SDS011;40342;52.998;5.862;2022-12-24T00:26:30;17.63;;;13.75;;
54430;SDS011;40342;52.998;5.862;2022-12-24T00:28:56;17.10;;;15.10;;
54430;SDS011;40342;52.998;5.862;2022-12-24T00:31:22;17.40;;;15.45;;
54430;SDS011;40342;52.998;5.862;2022-12-24T00:33:48;22.42;;;15.70;;
54430;SDS011;40342;52.998;5.862;2022-12-24T00:36:14;18.63;;;15.32;;
54430;SDS011;40342;52.998;5.862;2022-12-24T00:38:40;19.38;;;15.95;;
54430;SDS011;40342;52.998;5.862;2022-12-24T00:41:06;16.88;;;14.65;;
54430;SDS011;40342;52.998;5.862;2022-12-24T00:43:55;19.83;;;15.83;;
54430;SDS011;40342;52.998;5.862;2022-12-24T00:46:23;21.05;;;15.70;;
54430;SDS011;40342;52.998;5.862;2022-12-24T00:48:50;19.83;;;16.20;;
54430;SDS011;40342;52.998;5.862;2022-12-24T00:51:16;18.08;;;16.17;;
54430;SDS011;40342;52.998;5.862;2022-12-24T00:53:42;21.75;;;16.23;;
54430;SDS011;40342;52.998;5.862;2022-12-24T00:56:08;21.13;;;15.63;;
54430;SDS011;40342;52.998;5.862;2022-12-24T00:58:34;20.63;;;16.80;;
54430;SDS011;40342;52.998;5.862;2022-12-24T01:01:00;20.13;;;15.93;;
54430;SDS011;40342;52.998;5.862;2022-12-24T01:03:26;19.50;;;16.23;;
54430;SDS011;40342;52.998;5.862;2022-12-24T01:06:01;19.52;;;14.95;;
54430;SDS011;40342;52.998;5.862;2022-12-24T01:08:32;20.05;;;16.38;;
54430;SDS011;40342;52.998;5.862;2022-12-24T01:10:58;24.17;;;17.05;;
54430;SDS011;40342;52.998;5.862;2022-12-24T01:13:24;21.50;;;16.42;;
54430;SDS011;40342;52.998;5.862;2022-12-24T01:15:50;22.45;;;17.77;;
54430;SDS011;40342;52.998;5.862;2022-12-24T01:18:15;23.65;;;16.95;;
54430;SDS011;40342;52.998;5.862;2022-12-24T01:20:41;25.52;;;17.17;;
54430;SDS011;40342;52.998;5.862;2022-12-24T01:23:07;22.92;;;17.60;;
54430;SDS011;40342;52.998;5.862;2022-12-24T01:25:32;22.30;;;18.35;;
54430;SDS011;40342;52.998;5.862;2022-12-24T01:27:58;24.42;;;18.63;;
54430;SDS011;40342;52.998;5.862;2022-12-24T01:30:24;24.02;;;18.77;;
54430;SDS011;40342;52.998;5.862;2022-12-24T01:32:49;23.40;;;18.60;;
54430;SDS011;40342;52.998;5.862;2022-12-24T01:35:15;28.48;;;20.95;;
54430;SDS011;40342;52.998;5.862;2022-12-24T01:37:41;26.67;;;20.00;;
54430;SDS011;40342;52.998;5.862;2022-12-24T01:40:07;28.55;;;20.60;;
54430;SDS011;40342;52.998;5.862;2022-12-24T01:42:56;30.30;;;22.20;;
54430;SDS011;40342;52.998;5.862;2022-12-24T01:45:57;27.05;;;20.70;;
54430;SDS011;40342;52.998;5.862;2022-12-24T01:48:36;27.60;;;20.42;;
54430;SDS011;40342;52.998;5.862;2022-12-24T01:53:37;27.75;;;19.17;;
54430;SDS011;40342;52.998;5.862;2022-12-24T01:56:06;28.77;;;19.98;;
54430;SDS011;40342;52.998;5.862;2022-12-24T01:58:33;25.45;;;19.20;;
54430;SDS011;40342;52.998;5.862;2022-12-24T02:01:00;25.98;;;18.30;;
54430;SDS011;40342;52.998;5.862;2022-12-24T02:03:26;24.52;;;18.02;;
54430;SDS011;40342;52.998;5.862;2022-12-24T02:05:53;24.63;;;18.55;;
54430;SDS011;40342;52.998;5.862;2022-12-24T02:08:21;29.85;;;18.88;;
54430;SDS011;40342;52.998;5.862;2022-12-24T02:10:48;23.77;;;17.92;;
54430;SDS011;40342;52.998;5.862;2022-12-24T02:13:15;27.33;;;17.67;;
54430;SDS011;40342;52.998;5.862;2022-12-24T02:15:47;24.65;;;16.45;;
54430;SDS011;40342;52.998;5.862;2022-12-24T02:21:30;22.10;;;15.98;;
54430;SDS011;40342;52.998;5.862;2022-12-24T02:30:15;27.15;;;13.02;;
54430;SDS011;40342;52.998;5.862;2022-12-24T02:38:25;27.20;;;9.77;;
54430;SDS011;40342;52.998;5.862;2022-12-24T02:43:32;36.50;;;8.77;;
54430;SDS011;40342;52.998;5.862;2022-12-24T02:46:02;38.17;;;7.75;;
54430;SDS011;40342;52.998;5.862;2022-12-24T02:48:32;33.35;;;7.80;;
54430;SDS011;40342;52.998;5.862;2022-12-24T02:51:04;41.97;;;7.93;;
54430;SDS011;40342;52.998;5.862;2022-12-24T02:53:32;38.03;;;7.40;;
54430;SDS011;40342;52.998;5.862;2022-12-24T02:56:03;38.75;;;6.28;;
54430;SDS011;40342;52.998;5.862;2022-12-24T03:03:47;44.65;;;7.18;;
54430;SDS011;40342;52.998;5.862;2022-12-24T03:06:31;37.53;;;6.57;;
54430;SDS011;40342;52.998;5.862;2022-12-24T03:09:37;38.40;;;6.10;;
54430;SDS011;40342;52.998;5.862;2022-12-24T03:12:18;45.47;;;6.45;;
54430;SDS011;40342;52.998;5.862;2022-12-24T03:14:48;42.95;;;6.82;;
54430;SDS011;40342;52.998;5.862;2022-12-24T03:17:16;43.42;;;7.60;;
54430;SDS011;40342;52.998;5.862;2022-12-24T03:19:43;45.00;;;7.07;;
54430;SDS011;40342;52.998;5.862;2022-12-24T03:22:09;36.15;;;6.13;;
54430;SDS011;40342;52.998;5.862;2022-12-24T03:24:35;45.10;;;7.35;;
54430;SDS011;40342;52.998;5.862;2022-12-24T03:27:02;51.38;;;8.13;;
54430;SDS011;40342;52.998;5.862;2022-12-24T03:29:30;41.08;;;6.70;;
54430;SDS011;40342;52.998;5.862;2022-12-24T03:32:00;48.92;;;7.10;;
54430;SDS011;40342;52.998;5.862;2022-12-24T03:34:27;41.00;;;7.15;;
54430;SDS011;40342;52.998;5.862;2022-12-24T03:36:54;44.40;;;6.47;;
54430;SDS011;40342;52.998;5.862;2022-12-24T03:39:20;34.42;;;6.55;;
54430;SDS011;40342;52.998;5.862;2022-12-24T03:41:45;42.10;;;6.80;;
54430;SDS011;40342;52.998;5.862;2022-12-24T03:44:11;46.92;;;6.68;;
54430;SDS011;40342;52.998;5.862;2022-12-24T03:46:37;50.67;;;7.47;;
54430;SDS011;40342;52.998;5.862;2022-12-24T03:49:02;45.60;;;6.97;;
54430;SDS011;40342;52.998;5.862;2022-12-24T03:51:28;49.92;;;7.00;;
54430;SDS011;40342;52.998;5.862;2022-12-24T03:53:54;47.70;;;7.05;;
54430;SDS011;40342;52.998;5.862;2022-12-24T03:56:21;43.55;;;7.00;;
54430;SDS011;40342;52.998;5.862;2022-12-24T03:58:47;49.42;;;7.75;;
54430;SDS011;40342;52.998;5.862;2022-12-24T04:01:13;58.17;;;7.45;;
54430;SDS011;40342;52.998;5.862;2022-12-24T04:03:39;52.58;;;7.13;;
54430;SDS011;40342;52.998;5.862;2022-12-24T04:06:06;54.33;;;7.55;;
54430;SDS011;40342;52.998;5.862;2022-12-24T04:08:36;56.45;;;7.60;;
54430;SDS011;40342;52.998;5.862;2022-12-24T04:11:03;49.50;;;7.57;;
54430;SDS011;40342;52.998;5.862;2022-12-24T04:13:29;49.70;;;7.28;;
54430;SDS011;40342;52.998;5.862;2022-12-24T04:15:55;52.15;;;7.97;;
54430;SDS011;40342;52.998;5.862;2022-12-24T04:18:22;57.72;;;9.07;;
54430;SDS011;40342;52.998;5.862;2022-12-24T04:20:47;61.38;;;8.38;;
54430;SDS011;40342;52.998;5.862;2022-12-24T04:23:13;52.03;;;7.55;;
54430;SDS011;40342;52.998;5.862;2022-12-24T04:25:39;53.08;;;7.72;;
54430;SDS011;40342;52.998;5.862;2022-12-24T04:28:04;58.63;;;8.18;;
54430;SDS011;40342;52.998;5.862;2022-12-24T04:30:30;62.45;;;10.05;;
54430;SDS011;40342;52.998;5.862;2022-12-24T04:32:55;59.38;;;10.82;;
54430;SDS011;40342;52.998;5.862;2022-12-24T04:35:21;54.60;;;9.40;;
54430;SDS011;40342;52.998;5.862;2022-12-24T04:37:46;57.28;;;8.75;;
54430;SDS011;40342;52.998;5.862;2022-12-24T04:40:12;59.40;;;8.32;;
54430;SDS011;40342;52.998;5.862;2022-12-24T04:42:37;61.42;;;9.07;;
54430;SDS011;40342;52.998;5.862;2022-12-24T04:45:03;62.85;;;9.00;;
54430;SDS011;40342;52.998;5.862;2022-12-24T04:47:29;51.88;;;7.90;;
54430;SDS011;40342;52.998;5.862;2022-12-24T04:49:54;68.90;;;8.95;;
54430;SDS011;40342;52.998;5.862;2022-12-24T04:52:20;59.67;;;8.85;;
54430;SDS011;40342;52.998;5.862;2022-12-24T04:54:46;60.05;;;8.35;;
54430;SDS011;40342;52.998;5.862;2022-12-24T04:57:11;58.50;;;8.45;;
54430;SDS011;40342;52.998;5.862;2022-12-24T04:59:37;55.45;;;7.72;;
54430;SDS011;40342;52.998;5.862;2022-12-24T05:02:02;65.55;;;9.48;;
54430;SDS011;40342;52.998;5.862;2022-12-24T05:04:28;54.25;;;8.02;;
54430;SDS011;40342;52.998;5.862;2022-12-24T05:06:53;51.33;;;8.10;;
54430;SDS011;40342;52.998;5.862;2022-12-24T05:09:19;60.72;;;8.77;;
54430;SDS011;40342;52.998;5.862;2022-12-24T05:11:45;62.67;;;8.93;;
54430;SDS011;40342;52.998;5.862;2022-12-24T05:14:10;56.90;;;8.95;;
54430;SDS011;40342;52.998;5.862;2022-12-24T05:16:36;51.92;;;8.35;;
54430;SDS011;40342;52.998;5.862;2022-12-24T05:19:02;53.40;;;8.68;;
54430;SDS011;40342;52.998;5.862;2022-12-24T05:21:30;62.92;;;8.63;;
54430;SDS011;40342;52.998;5.862;2022-12-24T05:23:56;50.35;;;7.75;;
54430;SDS011;40342;52.998;5.862;2022-12-24T05:26:50;50.88;;;6.60;;
54430;SDS011;40342;52.998;5.862;2022-12-24T05:29:18;55.67;;;7.72;;
54430;SDS011;40342;52.998;5.862;2022-12-24T05:31:44;58.90;;;8.18;;
54430;SDS011;40342;52.998;5.862;2022-12-24T05:34:11;65.53;;;9.00;;
54430;SDS011;40342;52.998;5.862;2022-12-24T05:36:38;58.47;;;7.65;;
54430;SDS011;40342;52.998;5.862;2022-12-24T05:39:04;56.30;;;8.15;;
54430;SDS011;40342;52.998;5.862;2022-12-24T05:41:30;55.63;;;9.35;;
54430;SDS011;40342;52.998;5.862;2022-12-24T05:43:56;49.58;;;8.52;;
54430;SDS011;40342;52.998;5.862;2022-12-24T05:46:22;57.03;;;7.43;;
54430;SDS011;40342;52.998;5.862;2022-12-24T05:48:49;53.35;;;8.20;;
54430;SDS011;40342;52.998;5.862;2022-12-24T05:51:16;50.63;;;8.02;;
54430;SDS011;40342;52.998;5.862;2022-12-24T05:53:44;43.63;;;7.55;;
54430;SDS011;40342;52.998;5.862;2022-12-24T05:56:11;58.15;;;7.72;;
54430;SDS011;40342;52.998;5.862;2022-12-24T05:58:39;46.42;;;7.22;;
54430;SDS011;40342;52.998;5.862;2022-12-24T06:01:06;54.25;;;8.60;;
54430;SDS011;40342;52.998;5.862;2022-12-24T06:03:32;61.10;;;8.45;;
54430;SDS011;40342;52.998;5.862;2022-12-24T06:06:03;55.75;;;7.90;;
54430;SDS011;40342;52.998;5.862;2022-12-24T06:08:31;53.33;;;7.10;;
54430;SDS011;40342;52.998;5.862;2022-12-24T06:10:58;49.95;;;7.72;;
54430;SDS011;40342;52.998;5.862;2022-12-24T06:13:25;58.38;;;7.63;;
54430;SDS011;40342;52.998;5.862;2022-12-24T06:16:00;53.95;;;7.72;;
54430;SDS011;40342;52.998;5.862;2022-12-24T06:18:31;49.75;;;8.18;;
54430;SDS011;40342;52.998;5.862;2022-12-24T06:20:58;53.72;;;8.48;;
54430;SDS011;40342;52.998;5.862;2022-12-24T06:23:24;52.47;;;6.95;;
54430;SDS011;40342;52.998;5.862;2022-12-24T06:25:50;56.95;;;7.80;;
54430;SDS011;40342;52.998;5.862;2022-12-24T06:28:19;46.63;;;7.82;;
54430;SDS011;40342;52.998;5.862;2022-12-24T06:30:46;52.65;;;7.70;;
54430;SDS011;40342;52.998;5.862;2022-12-24T06:33:13;48.33;;;6.88;;
54430;SDS011;40342;52.998;5.862;2022-12-24T06:35:39;54.28;;;8.05;;
54430;SDS011;40342;52.998;5.862;2022-12-24T06:38:05;43.13;;;6.85;;
54430;SDS011;40342;52.998;5.862;2022-12-24T06:40:31;50.15;;;8.50;;
54430;SDS011;40342;52.998;5.862;2022-12-24T06:42:56;50.97;;;7.15;;
54430;SDS011;40342;52.998;5.862;2022-12-24T06:45:22;52.08;;;7.97;;
54430;SDS011;40342;52.998;5.862;2022-12-24T06:47:48;47.15;;;7.63;;
54430;SDS011;40342;52.998;5.862;2022-12-24T06:50:13;61.90;;;8.70;;
54430;SDS011;40342;52.998;5.862;2022-12-24T06:52:39;50.08;;;7.82;;
54430;SDS011;40342;52.998;5.862;2022-12-24T06:55:05;51.30;;;8.30;;
54430;SDS011;40342;52.998;5.862;2022-12-24T06:57:31;48.92;;;6.90;;
54430;SDS011;40342;52.998;5.862;2022-12-24T06:59:57;50.85;;;7.95;;
54430;SDS011;40342;52.998;5.862;2022-12-24T07:02:23;48.78;;;7.03;;
54430;SDS011;40342;52.998;5.862;2022-12-24T07:04:49;60.40;;;8.70;;
54430;SDS011;40342;52.998;5.862;2022-12-24T07:07:14;53.88;;;8.27;;
54430;SDS011;40342;52.998;5.862;2022-12-24T07:09:40;56.80;;;8.43;;
54430;SDS011;40342;52.998;5.862;2022-12-24T07:12:06;49.13;;;7.10;;
54430;SDS011;40342;52.998;5.862;2022-12-24T07:14:31;41.90;;;6.40;;
54430;SDS011;40342;52.998;5.862;2022-12-24T07:16:57;55.05;;;7.85;;
54430;SDS011;40342;52.998;5.862;2022-12-24T07:19:23;58.83;;;7.55;;
54430;SDS011;40342;52.998;5.862;2022-12-24T07:21:48;54.50;;;6.97;;
54430;SDS011;40342;52.998;5.862;2022-12-24T07:24:14;54.85;;;7.80;;
54430;SDS011;40342;52.998;5.862;2022-12-24T07:26:40;52.00;;;7.22;;
54430;SDS011;40342;52.998;5.862;2022-12-24T07:29:06;53.42;;;8.02;;
54430;SDS011;40342;52.998;5.862;2022-12-24T07:31:32;47.88;;;7.32;;
54430;SDS011;40342;52.998;5.862;2022-12-24T07:33:57;48.28;;;8.40;;
54430;SDS011;40342;52.998;5.862;2022-12-24T07:36:23;52.30;;;7.47;;
54430;SDS011;40342;52.998;5.862;2022-12-24T07:38:49;58.25;;;8.35;;
54430;SDS011;40342;52.998;5.862;2022-12-24T07:41:15;54.13;;;7.82;;
54430;SDS011;40342;52.998;5.862;2022-12-24T07:43:40;60.28;;;7.95;;
54430;SDS011;40342;52.998;5.862;2022-12-24T07:46:06;46.10;;;8.18;;
54430;SDS011;40342;52.998;5.862;2022-12-24T07:48:32;61.28;;;8.00;;
54430;SDS011;40342;52.998;5.862;2022-12-24T07:50:58;53.65;;;8.32;;
54430;SDS011;40342;52.998;5.862;2022-12-24T07:53:25;57.65;;;8.38;;
54430;SDS011;40342;52.998;5.862;2022-12-24T07:55:51;61.20;;;7.57;;
54430;SDS011;40342;52.998;5.862;2022-12-24T07:58:17;58.08;;;7.50;;
54430;SDS011;40342;52.998;5.862;2022-12-24T08:00:43;60.30;;;8.32;;
54430;SDS011;40342;52.998;5.862;2022-12-24T08:03:18;61.58;;;8.52;;
54430;SDS011;40342;52.998;5.862;2022-12-24T08:05:45;56.90;;;8.30;;
54430;SDS011;40342;52.998;5.862;2022-12-24T08:08:11;47.30;;;7.75;;
54430;SDS011;40342;52.998;5.862;2022-12-24T08:10:38;50.72;;;6.97;;
54430;SDS011;40342;52.998;5.862;2022-12-24T08:13:04;53.05;;;8.43;;
54430;SDS011;40342;52.998;5.862;2022-12-24T08:15:30;53.35;;;7.97;;
54430;SDS011;40342;52.998;5.862;2022-12-24T08:17:55;46.38;;;7.35;;
54430;SDS011;40342;52.998;5.862;2022-12-24T08:20:21;60.53;;;7.63;;
54430;SDS011;40342;52.998;5.862;2022-12-24T08:22:46;55.67;;;7.25;;
54430;SDS011;40342;52.998;5.862;2022-12-24T08:25:12;50.88;;;7.72;;
54430;SDS011;40342;52.998;5.862;2022-12-24T08:27:37;47.65;;;7.70;;
54430;SDS011;40342;52.998;5.862;2022-12-24T08:30:03;54.88;;;8.45;;
54430;SDS011;40342;52.998;5.862;2022-12-24T08:32:29;57.55;;;7.82;;
54430;SDS011;40342;52.998;5.862;2022-12-24T08:34:55;54.83;;;8.32;;
54430;SDS011;40342;52.998;5.862;2022-12-24T08:37:21;47.00;;;8.52;;
54430;SDS011;40342;52.998;5.862;2022-12-24T08:39:46;42.85;;;8.18;;
54430;SDS011;40342;52.998;5.862;2022-12-24T08:42:12;58.20;;;8.40;;
54430;SDS011;40342;52.998;5.862;2022-12-24T08:44:37;58.83;;;8.60;;
54430;SDS011;40342;52.998;5.862;2022-12-24T08:47:03;64.13;;;7.93;;
54430;SDS011;40342;52.998;5.862;2022-12-24T08:49:29;53.00;;;7.55;;
54430;SDS011;40342;52.998;5.862;2022-12-24T08:51:54;53.85;;;7.60;;
54430;SDS011;40342;52.998;5.862;2022-12-24T08:54:20;50.88;;;8.40;;
54430;SDS011;40342;52.998;5.862;2022-12-24T08:56:47;63.00;;;8.32;;
54430;SDS011;40342;52.998;5.862;2022-12-24T08:59:13;61.92;;;8.05;;
54430;SDS011;40342;52.998;5.862;2022-12-24T09:01:38;47.22;;;7.35;;
54430;SDS011;40342;52.998;5.862;2022-12-24T09:04:04;54.67;;;7.78;;
54430;SDS011;40342;52.998;5.862;2022-12-24T09:06:30;55.83;;;8.20;;
54430;SDS011;40342;52.998;5.862;2022-12-24T09:08:56;60.35;;;9.50;;
54430;SDS011;40342;52.998;5.862;2022-12-24T09:11:23;54.42;;;7.82;;
54430;SDS011;40342;52.998;5.862;2022-12-24T09:13:49;58.92;;;9.15;;
54430;SDS011;40342;52.998;5.862;2022-12-24T09:16:14;62.67;;;8.75;;
54430;SDS011;40342;52.998;5.862;2022-12-24T09:18:40;55.65;;;8.70;;
54430;SDS011;40342;52.998;5.862;2022-12-24T09:21:07;48.70;;;9.48;;
54430;SDS011;40342;52.998;5.862;2022-12-24T09:23:36;56.42;;;7.95;;
54430;SDS011;40342;52.998;5.862;2022-12-24T09:26:08;56.42;;;7.60;;
54430;SDS011;40342;52.998;5.862;2022-12-24T09:28:39;48.10;;;7.90;;
54430;SDS011;40342;52.998;5.862;2022-12-24T09:31:05;52.35;;;8.02;;
54430;SDS011;40342;52.998;5.862;2022-12-24T09:33:33;53.83;;;8.55;;
54430;SDS011;40342;52.998;5.862;2022-12-24T09:36:00;50.50;;;7.47;;
54430;SDS011;40342;52.998;5.862;2022-12-24T09:38:26;46.22;;;6.72;;
54430;SDS011;40342;52.998;5.862;2022-12-24T09:40:53;45.85;;;7.55;;
54430;SDS011;40342;52.998;5.862;2022-12-24T09:43:20;50.47;;;7.80;;
54430;SDS011;40342;52.998;5.862;2022-12-24T09:48:38;40.78;;;6.70;;
54430;SDS011;40342;52.998;5.862;2022-12-24T09:51:10;45.00;;;6.75;;
54430;SDS011;40342;52.998;5.862;2022-12-24T09:56:25;41.25;;;6.60;;
54430;SDS011;40342;52.998;5.862;2022-12-24T09:58:58;39.42;;;7.32;;
54430;SDS011;40342;52.998;5.862;2022-12-24T10:01:24;41.05;;;6.88;;
54430;SDS011;40342;52.998;5.862;2022-12-24T10:03:49;45.38;;;7.22;;
54430;SDS011;40342;52.998;5.862;2022-12-24T10:06:19;45.20;;;6.65;;
54430;SDS011;40342;52.998;5.862;2022-12-24T10:14:41;47.30;;;7.20;;
54430;SDS011;40342;52.998;5.862;2022-12-24T10:22:57;42.30;;;6.90;;
54430;SDS011;40342;52.998;5.862;2022-12-24T10:28:01;44.60;;;7.63;;
54430;SDS011;40342;52.998;5.862;2022-12-24T10:30:32;53.10;;;7.15;;
54430;SDS011;40342;52.998;5.862;2022-12-24T10:32:59;56.58;;;7.45;;
54430;SDS011;40342;52.998;5.862;2022-12-24T10:35:25;44.78;;;7.82;;
54430;SDS011;40342;52.998;5.862;2022-12-24T10:38:00;46.95;;;6.93;;
54430;SDS011;40342;52.998;5.862;2022-12-24T10:40:34;41.47;;;7.00;;
54430;SDS011;40342;52.998;5.862;2022-12-24T10:43:12;42.92;;;6.35;;
54430;SDS011;40342;52.998;5.862;2022-12-24T10:45:46;41.75;;;6.95;;
54430;SDS011;40342;52.998;5.862;2022-12-24T10:48:29;45.40;;;6.30;;
54430;SDS011;40342;52.998;5.862;2022-12-24T10:51:05;37.72;;;7.15;;
54430;SDS011;40342;52.998;5.862;2022-12-24T10:53:43;36.90;;;5.75;;
54430;SDS011;40342;52.998;5.862;2022-12-24T10:56:16;40.17;;;5.85;;
54430;SDS011;40342;52.998;5.862;2022-12-24T10:58:43;41.92;;;7.38;;
54430;SDS011;40342;52.998;5.862;2022-12-24T11:01:10;36.75;;;6.35;;
54430;SDS011;40342;52.998;5.862;2022-12-24T11:03:37;42.75;;;7.82;;
54430;SDS011;40342;52.998;5.862;2022-12-24T11:06:05;38.83;;;6.53;;
54430;SDS011;40342;52.998;5.862;2022-12-24T11:08:31;42.70;;;6.43;;
54430;SDS011;40342;52.998;5.862;2022-12-24T11:11:03;39.08;;;6.72;;
54430;SDS011;40342;52.998;5.862;2022-12-24T11:13:38;44.65;;;7.55;;
54430;SDS011;40342;52.998;5.862;2022-12-24T11:18:49;33.15;;;6.18;;
54430;SDS011;40342;52.998;5.862;2022-12-24T11:21:23;41.25;;;6.65;;
54430;SDS011;40342;52.998;5.862;2022-12-24T11:23:52;36.10;;;6.85;;
54430;SDS011;40342;52.998;5.862;2022-12-24T11:26:22;36.03;;;6.25;;
54430;SDS011;40342;52.998;5.862;2022-12-24T11:31:50;35.53;;;6.22;;
54430;SDS011;40342;52.998;5.862;2022-12-24T11:34:26;39.38;;;6.30;;
54430;SDS011;40342;52.998;5.862;2022-12-24T11:36:55;29.38;;;5.38;;
54430;SDS011;40342;52.998;5.862;2022-12-24T11:39:50;35.55;;;6.45;;
54430;SDS011;40342;52.998;5.862;2022-12-24T11:42:22;36.97;;;5.30;;
54430;SDS011;40342;52.998;5.862;2022-12-24T11:44:56;46.95;;;7.47;;
54430;SDS011;40342;52.998;5.862;2022-12-24T11:47:38;35.08;;;6.00;;
54430;SDS011;40342;52.998;5.862;2022-12-24T11:53:01;37.47;;;5.85;;
54430;SDS011;40342;52.998;5.862;2022-12-24T11:55:44;30.05;;;5.43;;
54430;SDS011;40342;52.998;5.862;2022-12-24T11:58:30;29.77;;;5.13;;
54430;SDS011;40342;52.998;5.862;2022-12-24T12:03:47;35.90;;;5.93;;
54430;SDS011;40342;52.998;5.862;2022-12-24T12:06:19;31.23;;;5.68;;
54430;SDS011;40342;52.998;5.862;2022-12-24T12:08:58;29.25;;;5.13;;
54430;SDS011;40342;52.998;5.862;2022-12-24T12:11:29;35.58;;;5.50;;
54430;SDS011;40342;52.998;5.862;2022-12-24T12:13:58;37.08;;;5.28;;
54430;SDS011;40342;52.998;5.862;2022-12-24T12:16:30;36.85;;;6.07;;
54430;SDS011;40342;52.998;5.862;2022-12-24T12:19:26;33.65;;;5.85;;
54430;SDS011;40342;52.998;5.862;2022-12-24T12:22:34;37.15;;;5.95;;
54430;SDS011;40342;52.998;5.862;2022-12-24T12:25:20;39.03;;;6.47;;
54430;SDS011;40342;52.998;5.862;2022-12-24T12:27:50;33.03;;;6.60;;
54430;SDS011;40342;52.998;5.862;2022-12-24T12:30:18;30.77;;;6.25;;
54430;SDS011;40342;52.998;5.862;2022-12-24T12:32:59;29.02;;;5.35;;
54430;SDS011;40342;52.998;5.862;2022-12-24T12:35:33;35.35;;;5.68;;
54430;SDS011;40342;52.998;5.862;2022-12-24T12:38:02;37.45;;;5.32;;
54430;SDS011;40342;52.998;5.862;2022-12-24T12:40:50;39.38;;;6.38;;
54430;SDS011;40342;52.998;5.862;2022-12-24T12:46:02;35.72;;;5.55;;
54430;SDS011;40342;52.998;5.862;2022-12-24T12:54:31;32.63;;;5.47;;
54430;SDS011;40342;52.998;5.862;2022-12-24T12:57:06;35.30;;;6.18;;
54430;SDS011;40342;52.998;5.862;2022-12-24T12:59:37;39.78;;;6.60;;
54430;SDS011;40342;52.998;5.862;2022-12-24T13:08:11;33.08;;;5.20;;
54430;SDS011;40342;52.998;5.862;2022-12-24T13:16:37;25.70;;;5.00;;
54430;SDS011;40342;52.998;5.862;2022-12-24T13:22:20;35.75;;;6.38;;
54430;SDS011;40342;52.998;5.862;2022-12-24T13:24:51;31.70;;;4.70;;
54430;SDS011;40342;52.998;5.862;2022-12-24T13:27:25;24.95;;;3.95;;
54430;SDS011;40342;52.998;5.862;2022-12-24T13:29:53;28.17;;;5.13;;
54430;SDS011;40342;52.998;5.862;2022-12-24T13:34:50;28.75;;;4.90;;
54430;SDS011;40342;52.998;5.862;2022-12-24T13:37:31;21.58;;;4.30;;
54430;SDS011;40342;52.998;5.862;2022-12-24T13:50:42;20.55;;;3.72;;
54430;SDS011;40342;52.998;5.862;2022-12-24T13:53:30;24.10;;;3.92;;
54430;SDS011;40342;52.998;5.862;2022-12-24T13:58:38;23.80;;;3.58;;
54430;SDS011;40342;52.998;5.862;2022-12-24T14:01:48;22.85;;;4.07;;
54430;SDS011;40342;52.998;5.862;2022-12-24T14:03:59;19.92;;;3.78;;
54430;SDS011;40342;52.998;5.862;2022-12-24T14:06:27;21.60;;;3.50;;
54430;SDS011;40342;52.998;5.862;2022-12-24T14:09:07;27.05;;;3.17;;
54430;SDS011;40342;52.998;5.862;2022-12-24T14:14:35;19.48;;;3.83;;
54430;SDS011;40342;52.998;5.862;2022-12-24T14:17:20;21.60;;;3.40;;
54430;SDS011;40342;52.998;5.862;2022-12-24T14:19:55;21.60;;;4.25;;
54430;SDS011;40342;52.998;5.862;2022-12-24T14:22:26;19.27;;;3.40;;
54430;SDS011;40342;52.998;5.862;2022-12-24T14:25:00;28.67;;;3.88;;
54430;SDS011;40342;52.998;5.862;2022-12-24T14:27:31;19.88;;;4.03;;
54430;SDS011;40342;52.998;5.862;2022-12-24T14:30:04;26.08;;;3.95;;
54430;SDS011;40342;52.998;5.862;2022-12-24T14:32:44;23.48;;;4.18;;
54430;SDS011;40342;52.998;5.862;2022-12-24T14:35:15;25.45;;;4.43;;
54430;SDS011;40342;52.998;5.862;2022-12-24T14:37:50;24.20;;;4.20;;
54430;SDS011;40342;52.998;5.862;2022-12-24T14:40:26;21.13;;;4.95;;
54430;SDS011;40342;52.998;5.862;2022-12-24T14:45:49;26.97;;;4.50;;
54430;SDS011;40342;52.998;5.862;2022-12-24T14:48:51;27.15;;;4.53;;
54430;SDS011;40342;52.998;5.862;2022-12-24T14:51:45;26.33;;;4.60;;
54430;SDS011;40342;52.998;5.862;2022-12-24T14:54:31;22.98;;;4.15;;
54430;SDS011;40342;52.998;5.862;2022-12-24T14:59:54;19.77;;;3.83;;
54430;SDS011;40342;52.998;5.862;2022-12-24T15:05:02;18.75;;;4.05;;
54430;SDS011;40342;52.998;5.862;2022-12-24T15:07:30;31.75;;;5.05;;
54430;SDS011;40342;52.998;5.862;2022-12-24T15:09:59;27.02;;;4.40;;
54430;SDS011;40342;52.998;5.862;2022-12-24T15:12:26;21.42;;;4.20;;
54430;SDS011;40342;52.998;5.862;2022-12-24T15:14:52;17.33;;;3.97;;
54430;SDS011;40342;52.998;5.862;2022-12-24T15:17:18;30.00;;;5.30;;
54430;SDS011;40342;52.998;5.862;2022-12-24T15:19:45;25.17;;;4.65;;
54430;SDS011;40342;52.998;5.862;2022-12-24T15:22:19;29.50;;;4.13;;
54430;SDS011;40342;52.998;5.862;2022-12-24T15:24:49;23.95;;;4.53;;
54430;SDS011;40342;52.998;5.862;2022-12-24T15:29:43;30.38;;;4.85;;
54430;SDS011;40342;52.998;5.862;2022-12-24T15:32:14;29.58;;;5.07;;
54430;SDS011;40342;52.998;5.862;2022-12-24T15:34:42;23.10;;;4.47;;
54430;SDS011;40342;52.998;5.862;2022-12-24T15:39:35;24.10;;;5.15;;
54430;SDS011;40342;52.998;5.862;2022-12-24T15:42:03;25.42;;;4.90;;
54430;SDS011;40342;52.998;5.862;2022-12-24T15:44:41;21.45;;;4.43;;
54430;SDS011;40342;52.998;5.862;2022-12-24T15:47:20;28.10;;;4.40;;
54430;SDS011;40342;52.998;5.862;2022-12-24T15:49:51;26.38;;;4.43;;
54430;SDS011;40342;52.998;5.862;2022-12-24T15:52:17;25.50;;;4.65;;
54430;SDS011;40342;52.998;5.862;2022-12-24T15:54:48;24.48;;;4.50;;
54430;SDS011;40342;52.998;5.862;2022-12-24T15:57:24;28.15;;;4.45;;
54430;SDS011;40342;52.998;5.862;2022-12-24T15:59:55;24.85;;;4.90;;
54430;SDS011;40342;52.998;5.862;2022-12-24T16:10:44;33.53;;;4.72;;
54430;SDS011;40342;52.998;5.862;2022-12-24T16:16:01;31.98;;;5.45;;
54430;SDS011;40342;52.998;5.862;2022-12-24T16:18:32;34.90;;;5.40;;
54430;SDS011;40342;52.998;5.862;2022-12-24T16:21:03;30.33;;;5.28;;
54430;SDS011;40342;52.998;5.862;2022-12-24T16:23:36;40.67;;;6.95;;
54430;SDS011;40342;52.998;5.862;2022-12-24T16:26:08;34.92;;;6.00;;
54430;SDS011;40342;52.998;5.862;2022-12-24T16:28:34;29.02;;;6.10;;
54430;SDS011;40342;52.998;5.862;2022-12-24T16:31:00;29.25;;;4.82;;
54430;SDS011;40342;52.998;5.862;2022-12-24T16:33:25;38.17;;;5.13;;
54430;SDS011;40342;52.998;5.862;2022-12-24T16:35:52;32.95;;;6.13;;
54430;SDS011;40342;52.998;5.862;2022-12-24T16:38:18;41.47;;;8.63;;
54430;SDS011;40342;52.998;5.862;2022-12-24T16:40:44;39.22;;;7.43;;
54430;SDS011;40342;52.998;5.862;2022-12-24T16:43:09;31.00;;;7.78;;
54430;SDS011;40342;52.998;5.862;2022-12-24T16:46:03;31.60;;;6.53;;
54430;SDS011;40342;52.998;5.862;2022-12-24T16:48:30;48.92;;;12.45;;
54430;SDS011;40342;52.998;5.862;2022-12-24T16:51:00;51.55;;;15.55;;